Time;durP1;ratioP1;P1;durP2;ratioP2;P2;SDS_P1;SDS_P2;PMS_P1;PMS_P2;Temp;Humidity;BMP_temperature;BMP_pressure;BME280_temperature;BME280_humidity;BME280_pressure;Samples;Min_cycle;Max_cycle;Signal;HPM_P1;HPM_P2
2024/01/29 00:00:49;;;;;;;12.40;11.30;;;;;;;;;;5051736;28;20044;-60
2024/01/29 00:03:15;;;;;;;12.70;11.50;;;;;;;;;;5051423;28;20033;-60
2024/01/29 00:05:40;;;;;;;12.95;11.65;;;;;;;;;;5052431;28;20025;-61
2024/01/29 00:08:06;;;;;;;12.52;11.35;;;;;;;;;;5048058;28;20548;-60
2024/01/29 00:10:31;;;;;;;12.75;11.55;;;;;;;;;;5052581;28;20543;-60
2024/01/29 00:12:57;;;;;;;13.23;11.50;;;;;;;;;;5049770;28;20113;-60
2024/01/29 00:15:22;;;;;;;12.55;11.30;;;;;;;;;;5052544;28;20075;-60
2024/01/29 00:17:48;;;;;;;12.45;11.35;;;;;;;;;;5052059;28;20462;-60
2024/01/29 00:20:13;;;;;;;12.32;11.23;;;;;;;;;;5056669;28;20029;-60
2024/01/29 00:22:39;;;;;;;12.50;11.40;;;;;;;;;;5052123;28;20100;-60
2024/01/29 00:25:05;;;;;;;12.63;11.38;;;;;;;;;;5056990;28;20064;-60
2024/01/29 00:27:30;;;;;;;12.60;11.35;;;;;;;;;;5052695;28;20379;-62
2024/01/29 00:29:56;;;;;;;12.60;11.40;;;;;;;;;;5052849;28;20197;-61
2024/01/29 00:32:22;;;;;;;12.30;11.15;;;;;;;;;;5049081;28;20040;-62
2024/01/29 00:34:47;;;;;;;12.57;11.38;;;;;;;;;;5052860;28;20041;-62
2024/01/29 00:37:13;;;;;;;12.68;11.52;;;;;;;;;;5051463;28;20021;-62
2024/01/29 00:39:38;;;;;;;12.80;11.60;;;;;;;;;;5051477;28;20466;-62
2024/01/29 00:42:04;;;;;;;12.70;11.60;;;;;;;;;;5049387;28;20110;-61
2024/01/29 00:44:29;;;;;;;12.63;11.43;;;;;;;;;;5053347;28;20064;-61
2024/01/29 00:46:54;;;;;;;12.98;11.77;;;;;;;;;;5049407;28;20029;-61
2024/01/29 00:49:20;;;;;;;12.45;11.18;;;;;;;;;;5051879;28;20474;-61
2024/01/29 00:51:46;;;;;;;12.60;11.40;;;;;;;;;;5052091;28;20029;-60
2024/01/29 00:54:11;;;;;;;12.40;11.30;;;;;;;;;;5048008;28;20447;-60
2024/01/29 00:56:37;;;;;;;12.88;11.50;;;;;;;;;;5053143;28;20461;-60
2024/01/29 00:59:02;;;;;;;12.55;11.43;;;;;;;;;;5050702;28;20439;-62
2024/01/29 01:01:27;;;;;;;12.70;11.50;;;;;;;;;;5051909;28;20025;-61
2024/01/29 01:03:53;;;;;;;12.73;11.43;;;;;;;;;;5047791;28;20035;-61
2024/01/29 01:06:18;;;;;;;12.68;11.38;;;;;;;;;;5040357;28;20033;-61
2024/01/29 01:08:44;;;;;;;12.65;11.45;;;;;;;;;;5045930;28;20499;-61
2024/01/29 01:11:09;;;;;;;12.93;11.73;;;;;;;;;;5049632;28;20032;-61
2024/01/29 01:13:35;;;;;;;12.63;11.43;;;;;;;;;;5051780;28;20445;-61
2024/01/29 01:16:00;;;;;;;12.48;11.35;;;;;;;;;;5050544;28;20032;-61
2024/01/29 01:18:25;;;;;;;12.80;11.55;;;;;;;;;;5051850;28;20116;-61
2024/01/29 01:20:51;;;;;;;12.90;11.70;;;;;;;;;;5048412;28;20033;-61
2024/01/29 01:23:16;;;;;;;12.70;11.50;;;;;;;;;;5043699;28;20375;-61
2024/01/29 01:25:41;;;;;;;13.20;11.90;;;;;;;;;;5045985;28;20104;-61
2024/01/29 01:28:08;;;;;;;12.60;11.40;;;;;;;;;;5031191;28;20029;-60
2024/01/29 01:30:34;;;;;;;12.77;11.48;;;;;;;;;;5032777;28;20033;-61
2024/01/29 01:32:59;;;;;;;12.50;11.40;;;;;;;;;;5036957;28;20030;-60
2024/01/29 01:35:24;;;;;;;12.52;11.43;;;;;;;;;;5032558;28;20044;-60
2024/01/29 01:37:50;;;;;;;12.88;11.68;;;;;;;;;;5031656;28;20112;-60
2024/01/29 01:40:15;;;;;;;12.60;11.30;;;;;;;;;;5050801;28;20050;-60
2024/01/29 01:42:42;;;;;;;12.75;11.45;;;;;;;;;;5040626;28;20417;-60
2024/01/29 01:45:08;;;;;;;12.80;11.57;;;;;;;;;;5031985;28;20044;-61
2024/01/29 01:47:35;;;;;;;12.50;11.40;;;;;;;;;;5046371;28;20029;-61
2024/01/29 01:50:00;;;;;;;12.48;11.27;;;;;;;;;;5031600;28;20314;-61
2024/01/29 01:52:26;;;;;;;12.38;11.27;;;;;;;;;;5032406;28;20381;-61
2024/01/29 01:54:53;;;;;;;12.45;11.27;;;;;;;;;;5045989;28;20041;-62
2024/01/29 01:57:19;;;;;;;12.30;11.20;;;;;;;;;;5051677;28;20032;-61
2024/01/29 01:59:44;;;;;;;12.95;11.38;;;;;;;;;;5051192;28;20030;-62
2024/01/29 02:02:10;;;;;;;12.50;11.30;;;;;;;;;;5051688;28;20109;-61
2024/01/29 02:04:36;;;;;;;12.60;11.40;;;;;;;;;;5039024;28;20113;-61
2024/01/29 02:07:02;;;;;;;12.27;11.18;;;;;;;;;;5048646;28;20671;-61
2024/01/29 02:09:28;;;;;;;12.57;11.27;;;;;;;;;;5038172;28;20028;-61
2024/01/29 02:11:53;;;;;;;12.70;11.40;;;;;;;;;;5047158;28;20036;-61
2024/01/29 02:14:18;;;;;;;12.40;11.23;;;;;;;;;;5040135;28;20438;-61
2024/01/29 02:16:44;;;;;;;12.52;11.32;;;;;;;;;;5049113;28;20037;-61
2024/01/29 02:19:15;;;;;;;12.80;11.48;;;;;;;;;;5051387;28;20113;-60
2024/01/29 02:21:41;;;;;;;12.23;11.13;;;;;;;;;;5048802;28;20154;-60
2024/01/29 02:24:07;;;;;;;12.50;11.30;;;;;;;;;;5048805;28;20136;-60
2024/01/29 02:26:32;;;;;;;12.23;11.10;;;;;;;;;;5050275;28;20108;-60
2024/01/29 02:28:57;;;;;;;12.10;11.00;;;;;;;;;;5048299;28;20029;-60
2024/01/29 02:31:23;;;;;;;12.55;11.27;;;;;;;;;;5050906;28;20036;-60
2024/01/29 02:33:49;;;;;;;12.48;11.30;;;;;;;;;;5048292;28;20182;-61
2024/01/29 02:36:14;;;;;;;12.30;11.20;;;;;;;;;;5050955;28;20044;-60
2024/01/29 02:38:40;;;;;;;12.30;11.20;;;;;;;;;;5047966;28;20040;-60
2024/01/29 02:41:05;;;;;;;12.18;11.07;;;;;;;;;;5049043;28;20263;-60
2024/01/29 02:43:31;;;;;;;12.10;10.90;;;;;;;;;;5048832;28;20370;-60
2024/01/29 02:45:56;;;;;;;12.10;11.00;;;;;;;;;;5040297;28;20033;-60
2024/01/29 02:48:21;;;;;;;12.23;11.13;;;;;;;;;;5049297;28;20473;-60
2024/01/29 02:50:48;;;;;;;12.20;11.00;;;;;;;;;;5047428;28;20037;-61
2024/01/29 02:53:13;;;;;;;12.60;11.40;;;;;;;;;;5045208;28;20087;-61
2024/01/29 02:55:39;;;;;;;12.40;11.30;;;;;;;;;;5036502;28;20025;-60
2024/01/29 02:58:04;;;;;;;12.30;11.10;;;;;;;;;;5045248;28;20230;-60
2024/01/29 03:00:31;;;;;;;12.15;10.95;;;;;;;;;;5049889;28;20037;-60
2024/01/29 03:02:57;;;;;;;11.95;10.85;;;;;;;;;;5045683;28;20032;-60
2024/01/29 03:05:22;;;;;;;12.00;10.77;;;;;;;;;;5048836;28;20037;-61
2024/01/29 03:07:48;;;;;;;11.90;10.70;;;;;;;;;;5043693;28;20037;-60
2024/01/29 03:10:14;;;;;;;12.35;11.15;;;;;;;;;;5049451;28;20108;-60
2024/01/29 03:12:39;;;;;;;12.35;11.15;;;;;;;;;;5048069;28;20373;-60
2024/01/29 03:15:05;;;;;;;12.05;10.90;;;;;;;;;;5047012;28;20528;-61
2024/01/29 03:17:30;;;;;;;11.77;10.73;;;;;;;;;;5049626;28;20041;-60
2024/01/29 03:19:56;;;;;;;12.18;11.07;;;;;;;;;;5048250;28;20038;-61
2024/01/29 03:22:22;;;;;;;12.00;10.90;;;;;;;;;;5038796;28;20035;-60
2024/01/29 03:24:47;;;;;;;12.10;10.93;;;;;;;;;;5046752;28;20520;-60
2024/01/29 03:27:13;;;;;;;11.73;10.70;;;;;;;;;;5047727;28;20417;-61
2024/01/29 03:29:38;;;;;;;11.93;10.70;;;;;;;;;;5051836;28;20389;-61
2024/01/29 03:32:04;;;;;;;12.18;10.98;;;;;;;;;;5050436;28;20024;-60
2024/01/29 03:34:29;;;;;;;11.98;10.77;;;;;;;;;;5052870;28;20090;-61
2024/01/29 03:36:55;;;;;;;11.90;10.80;;;;;;;;;;5050954;28;20087;-60
2024/01/29 03:39:20;;;;;;;11.73;10.68;;;;;;;;;;5050044;28;20033;-60
2024/01/29 03:41:45;;;;;;;11.90;10.75;;;;;;;;;;5053523;28;20062;-60
2024/01/29 03:44:11;;;;;;;11.70;10.60;;;;;;;;;;5049086;28;20025;-60
2024/01/29 03:46:36;;;;;;;11.60;10.50;;;;;;;;;;5053594;28;20513;-60
2024/01/29 03:49:01;;;;;;;11.43;10.43;;;;;;;;;;5047539;28;20366;-60
2024/01/29 03:51:27;;;;;;;11.50;10.40;;;;;;;;;;5054374;28;20044;-60
2024/01/29 03:53:52;;;;;;;11.93;10.73;;;;;;;;;;5047393;28;20037;-61
2024/01/29 03:56:17;;;;;;;11.85;10.75;;;;;;;;;;5052720;28;20041;-61
2024/01/29 03:58:43;;;;;;;11.60;10.50;;;;;;;;;;5052875;28;20108;-60
2024/01/29 04:01:08;;;;;;;11.52;10.43;;;;;;;;;;5051280;28;20040;-61
2024/01/29 04:03:34;;;;;;;11.75;10.65;;;;;;;;;;5042799;28;20028;-61
2024/01/29 04:05:59;;;;;;;11.40;10.40;;;;;;;;;;5050682;28;20136;-61
2024/01/29 04:08:24;;;;;;;11.43;10.32;;;;;;;;;;5051137;28;20029;-61
2024/01/29 04:10:51;;;;;;;11.57;10.48;;;;;;;;;;5052155;28;20079;-61
2024/01/29 04:13:16;;;;;;;11.48;10.40;;;;;;;;;;5040308;28;20029;-61
2024/01/29 04:15:41;;;;;;;11.68;10.48;;;;;;;;;;5048548;28;20414;-62
2024/01/29 04:18:07;;;;;;;11.23;10.20;;;;;;;;;;5052105;28;20082;-60
2024/01/29 04:20:33;;;;;;;11.57;10.05;;;;;;;;;;5052411;28;20070;-61
2024/01/29 04:22:59;;;;;;;11.10;10.00;;;;;;;;;;5049154;28;20045;-62
2024/01/29 04:25:24;;;;;;;11.18;10.18;;;;;;;;;;5052152;28;20032;-61
2024/01/29 04:27:51;;;;;;;11.07;10.07;;;;;;;;;;5050854;28;20029;-62
2024/01/29 04:30:16;;;;;;;10.85;9.80;;;;;;;;;;5051848;28;20047;-61
2024/01/29 04:32:42;;;;;;;11.10;10.10;;;;;;;;;;5052612;28;20032;-61
2024/01/29 04:35:07;;;;;;;11.32;10.15;;;;;;;;;;5049357;28;20029;-62
2024/01/29 04:37:32;;;;;;;11.32;10.00;;;;;;;;;;5053946;28;20393;-61
2024/01/29 04:39:58;;;;;;;10.85;9.85;;;;;;;;;;5048439;28;20037;-61
2024/01/29 04:42:23;;;;;;;11.63;10.43;;;;;;;;;;5045051;28;20041;-61
2024/01/29 04:44:49;;;;;;;16.10;13.02;;;;;;;;;;5046098;28;20031;-61
2024/01/29 04:47:14;;;;;;;16.10;12.55;;;;;;;;;;5032734;28;20381;-61
2024/01/29 04:49:39;;;;;;;11.15;10.15;;;;;;;;;;5041754;28;20025;-61
2024/01/29 04:52:05;;;;;;;15.95;11.65;;;;;;;;;;5049380;28;20039;-62
2024/01/29 04:54:30;;;;;;;35.90;20.05;;;;;;;;;;5050811;28;20037;-61
2024/01/29 04:56:56;;;;;;;30.88;19.13;;;;;;;;;;5033731;28;20030;-61
2024/01/29 04:59:21;;;;;;;12.48;11.20;;;;;;;;;;5041724;28;20040;-61
2024/01/29 05:01:46;;;;;;;11.73;10.52;;;;;;;;;;5052211;28;20478;-60
2024/01/29 05:04:12;;;;;;;12.27;10.80;;;;;;;;;;5049542;28;20033;-61
2024/01/29 05:06:37;;;;;;;12.45;10.70;;;;;;;;;;5049031;28;20040;-60
2024/01/29 05:09:03;;;;;;;49.97;20.58;;;;;;;;;;5050855;28;20032;-60
2024/01/29 05:11:29;;;;;;;16.52;11.80;;;;;;;;;;5050820;28;20028;-60
2024/01/29 05:13:54;;;;;;;11.55;10.35;;;;;;;;;;5051827;28;20029;-60
2024/01/29 05:16:20;;;;;;;11.07;9.98;;;;;;;;;;5051635;28;20033;-60
2024/01/29 05:18:47;;;;;;;10.93;9.82;;;;;;;;;;5051985;28;20376;-61
2024/01/29 05:21:13;;;;;;;10.95;9.82;;;;;;;;;;5034949;28;20072;-61
2024/01/29 05:23:38;;;;;;;11.07;9.98;;;;;;;;;;5043745;28;20401;-60
2024/01/29 05:26:04;;;;;;;14.82;11.05;;;;;;;;;;5037957;28;20458;-60
2024/01/29 05:28:30;;;;;;;11.20;9.90;;;;;;;;;;5043020;28;20342;-60
2024/01/29 05:30:55;;;;;;;10.85;9.75;;;;;;;;;;5052125;28;20529;-60
2024/01/29 05:33:21;;;;;;;19.42;14.60;;;;;;;;;;5049516;28;20039;-60
2024/01/29 05:35:46;;;;;;;17.30;13.18;;;;;;;;;;5049555;28;20035;-61
2024/01/29 05:38:11;;;;;;;13.32;10.50;;;;;;;;;;5048207;28;20153;-60
2024/01/29 05:40:37;;;;;;;12.65;10.77;;;;;;;;;;5050951;28;20025;-60
2024/01/29 05:43:02;;;;;;;14.35;12.27;;;;;;;;;;5048177;28;20440;-60
2024/01/29 05:45:28;;;;;;;11.43;9.70;;;;;;;;;;5049772;28;20465;-61
2024/01/29 05:47:53;;;;;;;11.63;9.50;;;;;;;;;;5050131;28;20083;-60
2024/01/29 05:50:18;;;;;;;10.23;9.20;;;;;;;;;;5049423;28;20048;-60
2024/01/29 05:52:44;;;;;;;10.43;9.20;;;;;;;;;;5047070;28;20045;-61
2024/01/29 05:55:10;;;;;;;9.80;8.90;;;;;;;;;;5044635;28;20116;-61
2024/01/29 05:57:35;;;;;;;10.18;9.20;;;;;;;;;;5038073;28;20033;-61
2024/01/29 06:00:03;;;;;;;12.00;10.80;;;;;;;;;;5050217;28;20104;-61
2024/01/29 06:02:28;;;;;;;11.68;10.48;;;;;;;;;;5050302;28;20033;-62
2024/01/29 06:04:53;;;;;;;11.73;10.52;;;;;;;;;;5045776;28;20025;-61
2024/01/29 06:07:19;;;;;;;11.48;10.27;;;;;;;;;;5031335;28;20037;-60
2024/01/29 06:09:44;;;;;;;10.52;9.40;;;;;;;;;;5032447;28;20374;-60
2024/01/29 06:12:09;;;;;;;10.57;9.48;;;;;;;;;;5030988;28;20135;-61
2024/01/29 06:14:35;;;;;;;9.98;8.80;;;;;;;;;;5031672;28;20043;-61
2024/01/29 06:17:00;;;;;;;9.60;8.60;;;;;;;;;;5031443;28;20032;-62
2024/01/29 06:19:26;;;;;;;9.80;8.80;;;;;;;;;;5032696;28;20033;-61
2024/01/29 06:21:51;;;;;;;9.30;8.40;;;;;;;;;;5050977;28;20449;-61
2024/01/29 06:24:17;;;;;;;9.93;8.43;;;;;;;;;;5051289;28;20053;-60
2024/01/29 06:26:42;;;;;;;10.25;8.52;;;;;;;;;;5052360;28;20064;-62
2024/01/29 06:29:08;;;;;;;9.98;8.48;;;;;;;;;;5059827;28;20033;-62
2024/01/29 06:31:38;;;;;;;9.18;8.25;;;;;;;;;;5026549;28;20044;-62
2024/01/29 06:34:04;;;;;;;11.50;8.40;;;;;;;;;;5045886;28;20037;-62
2024/01/29 06:36:30;;;;;;;10.52;8.70;;;;;;;;;;5033625;28;20029;-63
2024/01/29 06:38:56;;;;;;;11.38;8.82;;;;;;;;;;5031546;28;20380;-64
2024/01/29 06:41:22;;;;;;;12.52;8.93;;;;;;;;;;5038105;28;20029;-61
2024/01/29 06:43:51;;;;;;;10.77;8.60;;;;;;;;;;5031362;28;20078;-63
2024/01/29 06:46:17;;;;;;;10.00;9.00;;;;;;;;;;5030743;28;20044;-64
2024/01/29 06:48:43;;;;;;;15.55;9.32;;;;;;;;;;5042859;28;20040;-64
2024/01/29 06:51:08;;;;;;;13.63;9.45;;;;;;;;;;5050618;28;20024;-63
2024/01/29 06:53:35;;;;;;;15.90;10.35;;;;;;;;;;5051207;28;20141;-64
2024/01/29 06:56:04;;;;;;;18.13;11.60;;;;;;;;;;5050593;28;20021;-63
2024/01/29 06:58:37;;;;;;;19.85;10.35;;;;;;;;;;5051774;28;20037;-64
2024/01/29 07:01:05;;;;;;;15.35;9.82;;;;;;;;;;5045152;28;20034;-64
2024/01/29 07:03:30;;;;;;;13.48;9.02;;;;;;;;;;5033099;28;20481;-63
2024/01/29 07:05:57;;;;;;;13.52;8.05;;;;;;;;;;5047203;28;20112;-64
2024/01/29 07:08:23;;;;;;;10.65;7.95;;;;;;;;;;5053473;28;20035;-64
2024/01/29 07:10:48;;;;;;;14.90;11.63;;;;;;;;;;5055331;28;20029;-62
2024/01/29 07:13:13;;;;;;;12.10;8.68;;;;;;;;;;5054537;28;20441;-63
2024/01/29 07:15:40;;;;;;;9.95;7.90;;;;;;;;;;5054960;28;20033;-61
2024/01/29 07:18:06;;;;;;;10.60;8.13;;;;;;;;;;5054073;28;20037;-64
2024/01/29 07:20:38;;;;;;;13.68;8.95;;;;;;;;;;5051289;28;20035;-64
2024/01/29 07:23:05;;;;;;;14.10;9.43;;;;;;;;;;5051988;28;20049;-63
2024/01/29 07:25:31;;;;;;;13.98;8.60;;;;;;;;;;5055096;28;20033;-64
2024/01/29 07:28:02;;;;;;;13.30;8.57;;;;;;;;;;5053507;28;20071;-63
2024/01/29 07:30:27;;;;;;;11.02;7.70;;;;;;;;;;5036256;28;20079;-63
2024/01/29 07:32:53;;;;;;;11.50;8.00;;;;;;;;;;5034544;28;20033;-64
2024/01/29 07:35:18;;;;;;;13.20;8.13;;;;;;;;;;5033720;28;20025;-65
2024/01/29 07:37:43;;;;;;;11.13;8.27;;;;;;;;;;5034567;28;20502;-65
2024/01/29 07:40:09;;;;;;;9.52;7.60;;;;;;;;;;5033727;28;20039;-64
2024/01/29 07:42:35;;;;;;;13.25;7.60;;;;;;;;;;5034686;28;20045;-64
2024/01/29 07:45:01;;;;;;;12.23;7.30;;;;;;;;;;5038048;28;20021;-64
2024/01/29 07:47:26;;;;;;;11.73;7.72;;;;;;;;;;5053570;28;20370;-65
2024/01/29 07:49:52;;;;;;;11.80;7.50;;;;;;;;;;5054178;28;20025;-65
2024/01/29 07:52:17;;;;;;;9.45;7.15;;;;;;;;;;5042873;28;20115;-64
2024/01/29 07:54:42;;;;;;;9.32;7.43;;;;;;;;;;5043527;28;20508;-62
2024/01/29 07:57:08;;;;;;;10.13;7.32;;;;;;;;;;5041575;28;20373;-64
2024/01/29 07:59:34;;;;;;;10.55;7.50;;;;;;;;;;5053880;28;20032;-65
2024/01/29 08:01:59;;;;;;;8.88;6.63;;;;;;;;;;5047231;28;20033;-63
2024/01/29 08:04:24;;;;;;;9.57;7.00;;;;;;;;;;5053389;28;20027;-65
2024/01/29 08:06:50;;;;;;;10.73;7.40;;;;;;;;;;5044008;28;20068;-64
2024/01/29 08:09:15;;;;;;;12.80;7.65;;;;;;;;;;5039636;28;20026;-64
2024/01/29 08:11:40;;;;;;;10.57;7.15;;;;;;;;;;5033917;28;20108;-64
2024/01/29 08:14:06;;;;;;;11.75;6.88;;;;;;;;;;5033122;28;20037;-64
2024/01/29 08:16:31;;;;;;;13.38;7.60;;;;;;;;;;5034299;28;20029;-63
2024/01/29 08:18:58;;;;;;;12.93;7.28;;;;;;;;;;5037925;28;20097;-64
2024/01/29 08:21:24;;;;;;;10.00;6.82;;;;;;;;;;5053085;28;20029;-64
2024/01/29 08:23:49;;;;;;;10.05;6.88;;;;;;;;;;5038298;28;20045;-64
2024/01/29 08:26:14;;;;;;;11.00;6.88;;;;;;;;;;5032850;28;20026;-63
2024/01/29 08:28:40;;;;;;;10.48;6.90;;;;;;;;;;5048634;28;20111;-64
2024/01/29 08:31:06;;;;;;;10.32;7.15;;;;;;;;;;5034006;28;20033;-63
2024/01/29 08:33:32;;;;;;;10.75;7.53;;;;;;;;;;5034067;28;20037;-64
2024/01/29 08:35:58;;;;;;;11.43;7.10;;;;;;;;;;5056362;28;20030;-63
2024/01/29 08:38:23;;;;;;;11.50;7.20;;;;;;;;;;5033391;28;20488;-66
2024/01/29 08:40:49;;;;;;;9.63;6.72;;;;;;;;;;5037394;28;20123;-66
2024/01/29 08:43:15;;;;;;;11.38;7.20;;;;;;;;;;5047520;28;20029;-63
2024/01/29 08:45:40;;;;;;;12.05;7.90;;;;;;;;;;5051595;28;20438;-64
2024/01/29 08:48:06;;;;;;;10.25;6.90;;;;;;;;;;5051455;28;20028;-65
2024/01/29 08:50:32;;;;;;;12.05;7.05;;;;;;;;;;5072158;28;20040;-64
2024/01/29 08:52:58;;;;;;;18.98;8.15;;;;;;;;;;5064185;28;20470;-63
2024/01/29 08:55:23;;;;;;;11.98;7.53;;;;;;;;;;5036665;28;20389;-62
2024/01/29 08:57:49;;;;;;;15.82;10.00;;;;;;;;;;5048776;28;20376;-62
2024/01/29 09:00:15;;;;;;;10.30;7.65;;;;;;;;;;5046480;28;20036;-62
2024/01/29 09:02:41;;;;;;;12.20;7.32;;;;;;;;;;5040143;28;20029;-63
2024/01/29 09:05:07;;;;;;;10.82;7.57;;;;;;;;;;5051934;28;20020;-64
2024/01/29 09:07:33;;;;;;;8.88;6.90;;;;;;;;;;5043108;28;20036;-63
2024/01/29 09:09:58;;;;;;;8.90;7.25;;;;;;;;;;5032560;28;20026;-63
2024/01/29 09:12:23;;;;;;;12.23;7.40;;;;;;;;;;5032212;28;20546;-65
2024/01/29 09:14:49;;;;;;;20.20;12.05;;;;;;;;;;5033023;28;20354;-64
2024/01/29 09:17:14;;;;;;;12.55;8.15;;;;;;;;;;5032110;28;20025;-63
2024/01/29 09:19:40;;;;;;;37.25;13.80;;;;;;;;;;5048441;28;20061;-65
2024/01/29 09:22:05;;;;;;;11.43;8.02;;;;;;;;;;5032242;28;20474;-64
2024/01/29 09:24:30;;;;;;;22.35;11.05;;;;;;;;;;5034384;28;20050;-65
2024/01/29 09:26:56;;;;;;;34.10;11.80;;;;;;;;;;5036867;28;20026;-64
2024/01/29 09:29:21;;;;;;;12.52;7.45;;;;;;;;;;5041349;28;20037;-63
2024/01/29 09:31:47;;;;;;;12.23;7.72;;;;;;;;;;5052318;28;20428;-62
2024/01/29 09:34:12;;;;;;;13.05;8.45;;;;;;;;;;5051598;28;20041;-62
2024/01/29 09:36:38;;;;;;;16.73;9.25;;;;;;;;;;5036894;28;20467;-62
2024/01/29 09:39:05;;;;;;;16.63;8.98;;;;;;;;;;5036326;28;20064;-64
2024/01/29 09:41:34;;;;;;;14.48;7.72;;;;;;;;;;5032441;28;20084;-64
2024/01/29 09:44:04;;;;;;;8.52;7.32;;;;;;;;;;5031742;28;20033;-63
2024/01/29 09:46:31;;;;;;;9.57;7.40;;;;;;;;;;5039039;28;20029;-64
2024/01/29 09:48:58;;;;;;;13.88;7.50;;;;;;;;;;5051580;28;20056;-65
2024/01/29 09:51:25;;;;;;;17.67;9.23;;;;;;;;;;5033769;28;20092;-64
2024/01/29 09:53:52;;;;;;;12.80;8.35;;;;;;;;;;5038038;28;20033;-64
2024/01/29 09:56:17;;;;;;;9.70;7.53;;;;;;;;;;5040106;28;20052;-62
2024/01/29 09:58:43;;;;;;;19.42;10.45;;;;;;;;;;5042462;28;20139;-61
2024/01/29 10:01:11;;;;;;;19.67;10.30;;;;;;;;;;5047087;28;20032;-62
2024/01/29 10:03:38;;;;;;;13.57;8.75;;;;;;;;;;5032432;28;20064;-61
2024/01/29 10:06:04;;;;;;;9.82;8.35;;;;;;;;;;5031209;28;20037;-62
2024/01/29 10:08:30;;;;;;;9.10;7.80;;;;;;;;;;5046623;28;20037;-62
2024/01/29 10:10:56;;;;;;;9.32;7.78;;;;;;;;;;5045169;28;20067;-62
2024/01/29 10:13:21;;;;;;;9.98;8.20;;;;;;;;;;5045934;28;20061;-61
2024/01/29 10:15:47;;;;;;;10.23;8.10;;;;;;;;;;5043917;28;20376;-61
2024/01/29 10:18:15;;;;;;;12.23;7.95;;;;;;;;;;5039515;28;20045;-62
2024/01/29 10:20:40;;;;;;;10.82;7.80;;;;;;;;;;5049645;28;20041;-62
2024/01/29 10:23:05;;;;;;;10.77;8.30;;;;;;;;;;5050681;28;20504;-61
2024/01/29 10:25:34;;;;;;;9.20;8.10;;;;;;;;;;5047797;28;20029;-61
2024/01/29 10:28:10;;;;;;;8.75;7.80;;;;;;;;;;5037695;28;20040;-61
2024/01/29 10:30:36;;;;;;;10.88;7.80;;;;;;;;;;5048059;28;20029;-63
2024/01/29 10:33:02;;;;;;;10.20;8.35;;;;;;;;;;5041183;28;20049;-62
2024/01/29 10:35:27;;;;;;;10.68;8.60;;;;;;;;;;5040248;28;20041;-62
2024/01/29 10:37:58;;;;;;;9.23;8.02;;;;;;;;;;5044584;28;20037;-62
2024/01/29 10:40:24;;;;;;;11.85;8.10;;;;;;;;;;5056839;28;20033;-62
2024/01/29 10:42:50;;;;;;;13.10;9.05;;;;;;;;;;5053693;28;20148;-61
2024/01/29 10:45:19;;;;;;;12.25;9.00;;;;;;;;;;5050088;28;20512;-62
2024/01/29 10:47:52;;;;;;;11.23;8.38;;;;;;;;;;5040873;28;20034;-62
2024/01/29 10:50:19;;;;;;;11.07;8.70;;;;;;;;;;5048408;28;20638;-62
2024/01/29 10:52:47;;;;;;;9.50;8.07;;;;;;;;;;5051971;28;20037;-61
2024/01/29 10:55:16;;;;;;;9.43;7.90;;;;;;;;;;5050918;28;20115;-62
2024/01/29 10:57:47;;;;;;;15.48;8.68;;;;;;;;;;5041571;28;20036;-61
2024/01/29 11:00:18;;;;;;;9.35;8.07;;;;;;;;;;5037902;28;20355;-61
2024/01/29 11:02:45;;;;;;;12.35;8.55;;;;;;;;;;5037921;28;20049;-61
2024/01/29 11:05:12;;;;;;;12.10;8.40;;;;;;;;;;5037476;28;20021;-61
2024/01/29 11:07:40;;;;;;;14.07;8.60;;;;;;;;;;5038499;28;20037;-61
2024/01/29 11:10:11;;;;;;;12.40;9.07;;;;;;;;;;5036856;28;20520;-61
2024/01/29 11:12:38;;;;;;;14.95;9.38;;;;;;;;;;5039960;28;20043;-62
2024/01/29 11:15:06;;;;;;;10.82;8.93;;;;;;;;;;5042210;28;20033;-60
2024/01/29 11:17:32;;;;;;;10.02;8.75;;;;;;;;;;5045332;28;20037;-62
2024/01/29 11:20:10;;;;;;;9.77;8.77;;;;;;;;;;5041803;28;20030;-61
2024/01/29 11:22:41;;;;;;;11.63;9.85;;;;;;;;;;5042514;28;21751;-61
2024/01/29 11:25:16;;;;;;;10.27;9.23;;;;;;;;;;5051314;28;20079;-62
2024/01/29 11:27:44;;;;;;;10.82;9.73;;;;;;;;;;5043468;28;20047;-62
2024/01/29 11:30:21;;;;;;;12.13;10.55;;;;;;;;;;5056808;28;20069;-60
2024/01/29 11:32:48;;;;;;;13.02;10.23;;;;;;;;;;5054218;28;20040;-61
2024/01/29 11:35:15;;;;;;;10.82;9.05;;;;;;;;;;5046314;28;20076;-61
2024/01/29 11:37:41;;;;;;;10.45;8.73;;;;;;;;;;5042487;28;20029;-61
2024/01/29 11:40:43;;;;;;;10.07;8.93;;;;;;;;;;5050057;28;20040;-61
2024/01/29 11:43:21;;;;;;;10.70;9.27;;;;;;;;;;5034022;28;20037;-60
2024/01/29 11:45:50;;;;;;;9.60;8.60;;;;;;;;;;5054029;28;20060;-61
2024/01/29 11:48:17;;;;;;;10.25;9.00;;;;;;;;;;5056067;28;20036;-61
2024/01/29 11:50:48;;;;;;;12.65;9.00;;;;;;;;;;5039706;28;20478;-62
2024/01/29 11:53:18;;;;;;;12.93;9.27;;;;;;;;;;5042697;28;20033;-61
2024/01/29 11:55:46;;;;;;;10.88;8.95;;;;;;;;;;5041643;28;20405;-63
2024/01/29 11:58:17;;;;;;;10.77;9.05;;;;;;;;;;5033822;28;20033;-63
2024/01/29 12:00:43;;;;;;;11.65;8.93;;;;;;;;;;5034760;28;20032;-63
2024/01/29 12:03:12;;;;;;;9.88;8.77;;;;;;;;;;5034491;28;20441;-63
2024/01/29 12:06:01;;;;;;;9.73;8.73;;;;;;;;;;5034135;28;20087;-63
2024/01/29 12:08:27;;;;;;;10.95;9.00;;;;;;;;;;5042506;28;20046;-61
2024/01/29 12:11:00;;;;;;;10.85;9.10;;;;;;;;;;5048965;28;20036;-63
2024/01/29 12:13:25;;;;;;;11.48;9.65;;;;;;;;;;5043468;28;20025;-63
2024/01/29 12:15:54;;;;;;;11.15;9.30;;;;;;;;;;5052406;28;20040;-62
2024/01/29 12:18:23;;;;;;;11.25;8.95;;;;;;;;;;5034211;28;20029;-62
2024/01/29 12:20:48;;;;;;;11.05;9.40;;;;;;;;;;5049260;28;20374;-62
2024/01/29 12:23:16;;;;;;;10.80;9.70;;;;;;;;;;5039291;28;20103;-61
2024/01/29 12:25:44;;;;;;;11.23;8.95;;;;;;;;;;5033394;28;20124;-63
2024/01/29 12:28:10;;;;;;;10.00;9.00;;;;;;;;;;5049710;28;20041;-62
2024/01/29 12:30:37;;;;;;;10.23;9.07;;;;;;;;;;5037792;28;20066;-62
2024/01/29 12:33:06;;;;;;;12.00;9.45;;;;;;;;;;5049088;28;20515;-62
2024/01/29 12:35:31;;;;;;;11.18;9.60;;;;;;;;;;5033555;28;20439;-63
2024/01/29 12:38:07;;;;;;;11.73;9.70;;;;;;;;;;5033908;28;20560;-63
2024/01/29 12:40:34;;;;;;;12.88;9.52;;;;;;;;;;5034528;28;20370;-63
2024/01/29 12:43:01;;;;;;;11.20;9.60;;;;;;;;;;5052981;28;20389;-63
2024/01/29 12:45:26;;;;;;;10.73;9.60;;;;;;;;;;5041519;28;20512;-62
2024/01/29 12:48:19;;;;;;;11.50;10.15;;;;;;;;;;5039699;28;20033;-62
2024/01/29 12:50:44;;;;;;;14.13;10.23;;;;;;;;;;5037556;28;20033;-61
2024/01/29 12:53:10;;;;;;;12.30;10.63;;;;;;;;;;5041039;28;20033;-62
2024/01/29 12:55:37;;;;;;;10.73;9.60;;;;;;;;;;5041746;28;20032;-63
2024/01/29 12:58:03;;;;;;;12.23;10.23;;;;;;;;;;5046495;28;20039;-62
2024/01/29 13:00:29;;;;;;;12.88;10.30;;;;;;;;;;5033226;28;20033;-61
2024/01/29 13:02:55;;;;;;;11.32;10.13;;;;;;;;;;5046237;28;20025;-62
2024/01/29 13:05:20;;;;;;;11.23;10.02;;;;;;;;;;5032342;28;20967;-61
2024/01/29 13:07:47;;;;;;;11.38;10.23;;;;;;;;;;5037150;28;20033;-62
2024/01/29 13:10:12;;;;;;;11.85;9.90;;;;;;;;;;5038952;28;20120;-61
2024/01/29 13:12:39;;;;;;;11.38;9.80;;;;;;;;;;5039295;28;20104;-61
2024/01/29 13:15:04;;;;;;;12.00;9.60;;;;;;;;;;5037478;28;20541;-61
2024/01/29 13:17:30;;;;;;;11.73;9.75;;;;;;;;;;5033045;28;20108;-61
2024/01/29 13:19:55;;;;;;;13.95;9.70;;;;;;;;;;5033226;28;20109;-62
2024/01/29 13:22:21;;;;;;;11.25;9.40;;;;;;;;;;5035282;28;20599;-62
2024/01/29 13:24:48;;;;;;;12.88;9.98;;;;;;;;;;5036070;28;20033;-61
2024/01/29 13:27:14;;;;;;;13.65;9.00;;;;;;;;;;5031753;28;20042;-61
2024/01/29 13:29:39;;;;;;;10.65;9.55;;;;;;;;;;5032962;28;20034;-61
2024/01/29 13:32:05;;;;;;;11.02;9.27;;;;;;;;;;5032931;28;20037;-61
2024/01/29 13:34:30;;;;;;;14.73;9.55;;;;;;;;;;5031774;28;20052;-62
2024/01/29 13:36:56;;;;;;;12.85;10.35;;;;;;;;;;5030940;28;20034;-60
2024/01/29 13:39:22;;;;;;;13.98;9.98;;;;;;;;;;5034749;28;20057;-61
2024/01/29 13:41:47;;;;;;;10.90;9.32;;;;;;;;;;5049037;28;20108;-63
2024/01/29 13:44:12;;;;;;;9.65;8.55;;;;;;;;;;5051291;28;20040;-63
2024/01/29 13:46:39;;;;;;;10.32;8.55;;;;;;;;;;5038170;28;20025;-63
2024/01/29 13:49:04;;;;;;;11.68;9.07;;;;;;;;;;5049528;28;20029;-61
2024/01/29 13:51:30;;;;;;;15.93;9.00;;;;;;;;;;5050950;28;20107;-62
2024/01/29 13:53:55;;;;;;;12.40;9.15;;;;;;;;;;5042207;28;20034;-62
2024/01/29 13:56:21;;;;;;;9.60;8.57;;;;;;;;;;5039439;28;20370;-64
2024/01/29 13:58:46;;;;;;;12.13;8.80;;;;;;;;;;5032454;28;20061;-63
2024/01/29 14:01:12;;;;;;;14.15;9.38;;;;;;;;;;5048278;28;20029;-63
2024/01/29 14:03:40;;;;;;;12.02;9.07;;;;;;;;;;5033346;28;20521;-62
2024/01/29 14:06:06;;;;;;;10.52;8.75;;;;;;;;;;5044010;28;20033;-60
2024/01/29 14:08:33;;;;;;;11.52;8.75;;;;;;;;;;5031480;28;20052;-62
2024/01/29 14:10:59;;;;;;;12.75;8.68;;;;;;;;;;5041417;28;20041;-61
2024/01/29 14:13:24;;;;;;;12.15;8.50;;;;;;;;;;5035053;28;20029;-62
2024/01/29 14:15:50;;;;;;;12.27;8.25;;;;;;;;;;5046212;28;20453;-61
2024/01/29 14:18:15;;;;;;;9.43;8.10;;;;;;;;;;5043341;28;20080;-61
2024/01/29 14:20:41;;;;;;;10.95;8.20;;;;;;;;;;5048306;28;20036;-62